Time;durP1;ratioP1;P1;durP2;ratioP2;P2;SDS_P1;SDS_P2;PMS_P1;PMS_P2;Temp;Humidity;BMP_temperature;BMP_pressure;BME280_temperature;BME280_humidity;BME280_pressure;Samples;Min_cycle;Max_cycle;Signal;HPM_P1;HPM_P2
2023/11/09 06:01:01;;;;;;;12.73;4.57;;;;;;;;;;5724960;23;20501;-71
2023/11/09 06:03:27;;;;;;;6.97;3.83;;;;;;;;;;4997079;28;20433;-71
2023/11/09 06:05:53;;;;;;;8.00;5.43;;;;;;;;;;4995489;28;20407;-71
2023/11/09 06:08:20;;;;;;;13.23;5.10;;;;;;;;;;4995125;28;20720;-71
2023/11/09 06:10:49;;;;;;;9.10;4.40;;;;;;;;;;4993965;28;20817;-71
2023/11/09 06:13:15;;;;;;;9.97;5.23;;;;;;;;;;4971028;28;20416;-71
2023/11/09 06:15:42;;;;;;;15.97;5.40;;;;;;;;;;4975702;28;20474;-71
2023/11/09 06:18:10;;;;;;;13.40;6.37;;;;;;;;;;4975978;28;20412;-71
2023/11/09 06:20:41;;;;;;;12.23;5.87;;;;;;;;;;4977436;28;20432;-72
2023/11/09 06:23:07;;;;;;;14.10;7.00;;;;;;;;;;4975264;28;20503;-72
2023/11/09 06:25:33;;;;;;;20.63;7.60;;;;;;;;;;4976275;28;20423;-71
2023/11/09 06:27:59;;;;;;;17.30;6.27;;;;;;;;;;4975919;28;20419;-71
2023/11/09 06:30:27;;;;;;;15.67;6.93;;;;;;;;;;4978395;28;20585;-72
2023/11/09 06:32:53;;;;;;;19.57;6.97;;;;;;;;;;4995860;28;20437;-71
2023/11/09 06:35:19;;;;;;;17.13;8.77;;;;;;;;;;4994527;28;20454;-71
2023/11/09 06:37:45;;;;;;;22.30;6.53;;;;;;;;;;4995027;28;20407;-71
2023/11/09 06:40:12;;;;;;;16.00;6.83;;;;;;;;;;4994220;28;20656;-74
2023/11/09 06:42:39;;;;;;;20.73;7.60;;;;;;;;;;4994036;28;20522;-71
2023/11/09 06:45:05;;;;;;;27.90;7.00;;;;;;;;;;4994430;28;20414;-71
2023/11/09 06:47:31;;;;;;;14.10;6.30;;;;;;;;;;4994326;28;20419;-71
2023/11/09 06:49:58;;;;;;;15.80;7.73;;;;;;;;;;4994311;28;20834;-71
2023/11/09 06:52:25;;;;;;;17.67;6.07;;;;;;;;;;4993756;28;20459;-71
2023/11/09 06:54:51;;;;;;;17.33;5.90;;;;;;;;;;4992938;28;20459;-71
2023/11/09 06:57:17;;;;;;;22.90;6.57;;;;;;;;;;4977885;28;20415;-71
2023/11/09 06:59:43;;;;;;;15.80;6.70;;;;;;;;;;4979627;28;20446;-71
2023/11/09 07:02:09;;;;;;;10.60;5.60;;;;;;;;;;4980421;28;20888;-71
2023/11/09 07:04:35;;;;;;;36.43;7.30;;;;;;;;;;4977372;28;20451;-68
2023/11/09 07:07:02;;;;;;;24.33;7.60;;;;;;;;;;4984972;28;20427;-69
2023/11/09 07:09:28;;;;;;;19.63;6.70;;;;;;;;;;4993678;28;20435;-69
2023/11/09 07:11:54;;;;;;;17.33;7.73;;;;;;;;;;4990174;28;20454;-70
2023/11/09 07:14:23;;;;;;;14.87;6.20;;;;;;;;;;4984579;28;20471;-69
2023/11/09 07:16:55;;;;;;;18.63;7.40;;;;;;;;;;4974128;28;20466;-69
2023/11/09 07:19:21;;;;;;;20.87;7.10;;;;;;;;;;4974009;28;21174;-69
2023/11/09 07:21:47;;;;;;;13.03;6.20;;;;;;;;;;4973828;28;20431;-69
2023/11/09 07:24:14;;;;;;;21.17;8.57;;;;;;;;;;4973895;28;20423;-69
2023/11/09 07:26:40;;;;;;;16.93;7.00;;;;;;;;;;4974019;28;20425;-69
2023/11/09 07:29:06;;;;;;;24.80;8.60;;;;;;;;;;4973926;28;20416;-69
2023/11/09 07:31:33;;;;;;;15.40;8.10;;;;;;;;;;4986669;28;20438;-70
2023/11/09 07:33:59;;;;;;;24.20;8.73;;;;;;;;;;4993116;28;20463;-69
2023/11/09 07:36:25;;;;;;;16.60;8.17;;;;;;;;;;4993298;28;20404;-69
2023/11/09 07:38:52;;;;;;;20.10;7.83;;;;;;;;;;4993073;28;20414;-70
2023/11/09 07:41:18;;;;;;;16.97;7.53;;;;;;;;;;4993212;28;20798;-69
2023/11/09 07:43:44;;;;;;;16.23;7.80;;;;;;;;;;4992059;28;20845;-69
2023/11/09 07:46:10;;;;;;;21.90;7.17;;;;;;;;;;4973286;28;20499;-71
2023/11/09 07:48:36;;;;;;;12.77;6.33;;;;;;;;;;4973551;28;20439;-70
2023/11/09 07:51:02;;;;;;;22.83;7.00;;;;;;;;;;4973407;28;20444;-71
2023/11/09 07:53:28;;;;;;;11.53;6.10;;;;;;;;;;4973307;28;20436;-70
2023/11/09 07:55:54;;;;;;;13.27;6.27;;;;;;;;;;4973496;28;20426;-71
2023/11/09 07:58:20;;;;;;;13.37;6.17;;;;;;;;;;4973526;28;20856;-71
2023/11/09 08:00:46;;;;;;;11.87;4.50;;;;;;;;;;4973423;28;21021;-70
2023/11/09 08:03:14;;;;;;;10.83;3.97;;;;;;;;;;4986166;28;20411;-71
2023/11/09 08:05:41;;;;;;;5.43;3.20;;;;;;;;;;4992867;28;20884;-71
2023/11/09 08:08:10;;;;;;;2.30;2.10;;;;;;;;;;4992834;28;20407;-71
2023/11/09 08:10:40;;;;;;;4.50;2.60;;;;;;;;;;4990779;28;20441;-71
2023/11/09 08:13:07;;;;;;;8.00;2.03;;;;;;;;;;4986669;28;20474;-72
2023/11/09 08:15:35;;;;;;;2.63;2.23;;;;;;;;;;4990391;28;20466;-72
2023/11/09 08:18:02;;;;;;;7.40;2.03;;;;;;;;;;4990191;28;20430;-71
2023/11/09 08:20:29;;;;;;;4.57;2.47;;;;;;;;;;4984510;28;20439;-72
2023/11/09 08:22:56;;;;;;;3.00;2.00;;;;;;;;;;4992355;28;20465;-71
2023/11/09 08:25:23;;;;;;;3.50;2.30;;;;;;;;;;4992786;28;20423;-71
2023/11/09 08:27:51;;;;;;;4.00;2.30;;;;;;;;;;4991891;28;20427;-72
2023/11/09 08:30:19;;;;;;;4.20;2.63;;;;;;;;;;4990085;28;20457;-72
2023/11/09 08:32:47;;;;;;;4.17;2.20;;;;;;;;;;4972597;28;20427;-72
2023/11/09 08:35:13;;;;;;;5.13;2.50;;;;;;;;;;4986588;28;20524;-72
2023/11/09 08:37:40;;;;;;;2.80;2.30;;;;;;;;;;4992514;28;20829;-71
2023/11/09 08:40:17;;;;;;;3.43;2.40;;;;;;;;;;4992560;28;20411;-72
2023/11/09 08:42:53;;;;;;;3.03;2.30;;;;;;;;;;4985412;28;20430;-72
2023/11/09 08:45:21;;;;;;;5.23;2.00;;;;;;;;;;4981519;28;20414;-72
2023/11/09 08:47:49;;;;;;;4.73;3.07;;;;;;;;;;4997653;28;20430;-73
2023/11/09 08:50:16;;;;;;;3.70;2.50;;;;;;;;;;4992093;28;20422;-72
2023/11/09 08:52:42;;;;;;;2.67;2.30;;;;;;;;;;4992036;28;20406;-72
2023/11/09 08:55:09;;;;;;;5.17;2.70;;;;;;;;;;4989128;28;20458;-72
2023/11/09 08:57:36;;;;;;;3.50;2.63;;;;;;;;;;4994005;28;20415;-71
2023/11/09 09:00:05;;;;;;;7.07;2.73;;;;;;;;;;4996004;28;20422;-73
2023/11/09 09:02:31;;;;;;;6.93;2.80;;;;;;;;;;4990487;28;20451;-73
2023/11/09 09:04:57;;;;;;;4.43;3.00;;;;;;;;;;4982227;28;20421;-73
2023/11/09 09:07:25;;;;;;;3.90;2.30;;;;;;;;;;4989674;28;20423;-72
2023/11/09 09:09:52;;;;;;;4.83;2.27;;;;;;;;;;4985397;28;20444;-72
2023/11/09 09:12:20;;;;;;;4.50;2.43;;;;;;;;;;5015114;28;20440;-72
2023/11/09 09:14:47;;;;;;;5.00;2.33;;;;;;;;;;5015212;28;20608;-72
2023/11/09 09:17:15;;;;;;;5.03;2.30;;;;;;;;;;5014540;28;20456;-72
2023/11/09 09:19:41;;;;;;;2.93;2.30;;;;;;;;;;5007891;28;20494;-72
2023/11/09 09:22:09;;;;;;;5.90;2.57;;;;;;;;;;4977847;28;20526;-72
2023/11/09 09:24:39;;;;;;;3.73;2.27;;;;;;;;;;4995638;28;20706;-71
2023/11/09 09:27:06;;;;;;;5.17;2.50;;;;;;;;;;4980787;28;20497;-72
2023/11/09 09:29:32;;;;;;;4.00;2.33;;;;;;;;;;4995209;28;20790;-72
2023/11/09 09:31:58;;;;;;;3.50;2.30;;;;;;;;;;4989241;28;20586;-72
2023/11/09 09:34:25;;;;;;;7.97;2.73;;;;;;;;;;5011547;28;20465;-73
2023/11/09 09:36:52;;;;;;;3.30;2.33;;;;;;;;;;5015101;28;20437;-71
2023/11/09 09:39:18;;;;;;;4.77;2.43;;;;;;;;;;5011735;28;20557;-73
2023/11/09 09:41:50;;;;;;;4.80;2.33;;;;;;;;;;4984668;28;20537;-72
2023/11/09 09:44:19;;;;;;;3.43;2.47;;;;;;;;;;4986823;28;20418;-72
2023/11/09 09:46:48;;;;;;;4.93;2.30;;;;;;;;;;4990501;28;20427;-71
2023/11/09 09:49:14;;;;;;;5.27;2.57;;;;;;;;;;4975516;28;20496;-73
2023/11/09 09:51:40;;;;;;;3.90;2.53;;;;;;;;;;4992020;28;20464;-72
2023/11/09 09:54:10;;;;;;;7.40;2.97;;;;;;;;;;4979542;28;20521;-74
2023/11/09 09:56:39;;;;;;;6.77;2.60;;;;;;;;;;4995302;28;20423;-72
2023/11/09 09:59:12;;;;;;;8.40;3.10;;;;;;;;;;4994987;28;20415;-74
2023/11/09 10:01:42;;;;;;;3.60;2.30;;;;;;;;;;4994934;28;20614;-71
2023/11/09 10:04:09;;;;;;;7.67;2.90;;;;;;;;;;4995205;28;20423;-71
2023/11/09 10:06:35;;;;;;;5.50;2.80;;;;;;;;;;4993583;28;20427;-71
2023/11/09 10:09:05;;;;;;;6.00;2.83;;;;;;;;;;4999724;28;20425;-73
2023/11/09 10:11:32;;;;;;;13.53;3.43;;;;;;;;;;4998076;28;21028;-73
2023/11/09 10:13:58;;;;;;;3.50;2.57;;;;;;;;;;4990442;28;20494;-74
2023/11/09 10:16:31;;;;;;;9.10;2.10;;;;;;;;;;4988770;28;20445;-70
2023/11/09 10:19:01;;;;;;;5.13;1.90;;;;;;;;;;4994540;28;20450;-71
2023/11/09 10:21:30;;;;;;;3.13;2.10;;;;;;;;;;4975591;28;20926;-70
2023/11/09 10:23:58;;;;;;;4.30;1.90;;;;;;;;;;4975073;28;20895;-71
2023/11/09 10:26:35;;;;;;;2.10;1.67;;;;;;;;;;4985677;28;20418;-71
2023/11/09 10:29:02;;;;;;;2.17;1.80;;;;;;;;;;4984771;28;20438;-74
2023/11/09 10:31:30;;;;;;;2.47;1.80;;;;;;;;;;4993539;28;20423;-70
2023/11/09 10:33:56;;;;;;;2.30;1.87;;;;;;;;;;4984156;28;20629;-69
2023/11/09 10:36:22;;;;;;;4.50;2.30;;;;;;;;;;4969646;28;20502;-70
2023/11/09 10:38:49;;;;;;;6.63;1.63;;;;;;;;;;5004154;28;20413;-71
2023/11/09 10:41:20;;;;;;;3.13;1.63;;;;;;;;;;5004858;28;20435;-70
2023/11/09 10:43:47;;;;;;;3.73;2.00;;;;;;;;;;4986270;28;20481;-72
2023/11/09 10:46:16;;;;;;;2.83;2.03;;;;;;;;;;5009210;28;20414;-70
2023/11/09 10:48:44;;;;;;;3.63;2.00;;;;;;;;;;4997254;28;20410;-70
2023/11/09 10:51:11;;;;;;;10.13;3.00;;;;;;;;;;5005910;28;20489;-71
2023/11/09 10:53:37;;;;;;;7.70;3.07;;;;;;;;;;5002444;28;20414;-70
2023/11/09 10:56:09;;;;;;;3.53;2.13;;;;;;;;;;5008188;28;20421;-71
2023/11/09 10:58:40;;;;;;;5.30;1.53;;;;;;;;;;4997193;28;20479;-71
2023/11/09 11:01:08;;;;;;;2.53;1.60;;;;;;;;;;5006462;28;20837;-70
2023/11/09 11:03:41;;;;;;;2.37;1.47;;;;;;;;;;5004063;28;20744;-71
2023/11/09 11:06:16;;;;;;;4.33;1.67;;;;;;;;;;4998630;28;20418;-70
2023/11/09 11:08:43;;;;;;;1.53;1.43;;;;;;;;;;5004095;28;20414;-71
2023/11/09 11:11:13;;;;;;;3.60;1.87;;;;;;;;;;4967113;28;20452;-72
2023/11/09 11:13:40;;;;;;;2.37;1.63;;;;;;;;;;4986485;28;20485;-72
2023/11/09 11:16:16;;;;;;;2.60;1.63;;;;;;;;;;4993082;28;20415;-73
2023/11/09 11:19:06;;;;;;;3.63;1.77;;;;;;;;;;4995595;28;20405;-72
2023/11/09 11:21:32;;;;;;;1.67;1.50;;;;;;;;;;4986747;28;20446;-72
2023/11/09 11:24:16;;;;;;;1.30;1.20;;;;;;;;;;4989782;28;20429;-73
2023/11/09 11:27:02;;;;;;;3.47;1.43;;;;;;;;;;4982119;28;20463;-73
2023/11/09 11:29:29;;;;;;;1.40;1.30;;;;;;;;;;4956578;28;20522;-70
2023/11/09 11:31:57;;;;;;;1.57;1.30;;;;;;;;;;4990366;28;20439;-71
2023/11/09 11:34:42;;;;;;;2.90;2.20;;;;;;;;;;4993372;28;20464;-71
2023/11/09 11:37:08;;;;;;;7.47;4.13;;;;;;;;;;4992927;28;20460;-71
2023/11/09 11:39:36;;;;;;;4.70;3.13;;;;;;;;;;4977157;28;20420;-71
2023/11/09 11:42:16;;;;;;;11.23;4.40;;;;;;;;;;5063522;28;20868;-71
2023/11/09 11:44:46;;;;;;;1.90;1.70;;;;;;;;;;5049104;28;20397;-70
2023/11/09 11:47:14;;;;;;;6.10;3.90;;;;;;;;;;5049159;28;20408;-69
2023/11/09 11:49:40;;;;;;;4.33;2.57;;;;;;;;;;5035403;28;20424;-70
2023/11/09 11:52:09;;;;;;;13.77;5.83;;;;;;;;;;5043683;28;20460;-70
2023/11/09 11:54:35;;;;;;;44.90;24.47;;;;;;;;;;5036925;28;20448;-69
2023/11/09 11:57:01;;;;;;;29.23;15.53;;;;;;;;;;5041838;28;20423;-70
2023/11/09 11:59:30;;;;;;;1.80;1.40;;;;;;;;;;5043504;28;20420;-71
2023/11/09 12:01:56;;;;;;;1.50;1.37;;;;;;;;;;5036628;28;21070;-71
2023/11/09 12:04:22;;;;;;;3.63;1.90;;;;;;;;;;5037551;28;20441;-71
2023/11/09 12:06:49;;;;;;;3.27;1.50;;;;;;;;;;5045965;28;20958;-70
2023/11/09 12:09:18;;;;;;;1.70;1.30;;;;;;;;;;5048786;28;20443;-71
2023/11/09 12:11:47;;;;;;;2.53;1.97;;;;;;;;;;5043276;28;20440;-72
2023/11/09 12:14:15;;;;;;;1.60;1.50;;;;;;;;;;5046950;28;20429;-72
2023/11/09 12:16:41;;;;;;;6.23;1.40;;;;;;;;;;5048761;28;20404;-73
2023/11/09 12:19:11;;;;;;;1.40;1.37;;;;;;;;;;5048744;28;20432;-72
2023/11/09 12:21:37;;;;;;;2.60;2.07;;;;;;;;;;5047048;28;20460;-72
2023/11/09 12:24:03;;;;;;;1.30;1.27;;;;;;;;;;5046927;28;20426;-70
2023/11/09 12:26:32;;;;;;;4.57;2.60;;;;;;;;;;5047120;28;20412;-71
2023/11/09 12:29:00;;;;;;;2.17;1.70;;;;;;;;;;5046545;28;20427;-71
2023/11/09 12:31:27;;;;;;;2.63;1.50;;;;;;;;;;5048079;28;20794;-71
2023/11/09 12:34:09;;;;;;;1.40;1.27;;;;;;;;;;5047990;28;20416;-70
2023/11/09 12:36:41;;;;;;;3.03;1.70;;;;;;;;;;5035652;28;20985;-71
2023/11/09 12:41:52;;;;;;;1.83;1.17;;;;;;;;;;5028146;28;20530;-71
2023/11/09 12:44:24;;;;;;;1.47;1.10;;;;;;;;;;5028182;28;20409;-72
2023/11/09 12:46:50;;;;;;;1.27;1.10;;;;;;;;;;5028383;28;20416;-71
2023/11/09 12:49:16;;;;;;;2.73;1.10;;;;;;;;;;5033228;28;20464;-71
2023/11/09 12:51:44;;;;;;;2.70;1.20;;;;;;;;;;5024793;28;20481;-71
2023/11/09 12:54:13;;;;;;;2.40;1.40;;;;;;;;;;5013645;28;20424;-72
2023/11/09 12:56:41;;;;;;;1.53;1.00;;;;;;;;;;5030240;28;20421;-72
2023/11/09 12:59:11;;;;;;;1.13;1.10;;;;;;;;;;5034180;28;20456;-72
2023/11/09 13:01:38;;;;;;;1.60;1.10;;;;;;;;;;5034832;28;20469;-70
2023/11/09 13:04:05;;;;;;;1.00;0.90;;;;;;;;;;5033148;28;20487;-71
2023/11/09 13:06:31;;;;;;;2.87;1.37;;;;;;;;;;5034456;28;20422;-71
2023/11/09 13:10:18;;;;;;;2.43;1.43;;;;;;;;;;5034419;28;20951;-71
2023/11/09 13:11:55;;;;;;;1.20;0.90;;;;;;;;;;5028964;28;20472;-71
2023/11/09 13:14:32;;;;;;;2.80;0.87;;;;;;;;;;5020419;28;20422;-72
2023/11/09 13:17:01;;;;;;;2.43;0.90;;;;;;;;;;5014798;28;20929;-72
2023/11/09 13:19:27;;;;;;;1.83;1.23;;;;;;;;;;5028596;28;20539;-73
2023/11/09 13:21:53;;;;;;;2.33;1.30;;;;;;;;;;5033733;28;20563;-72
2023/11/09 13:24:28;;;;;;;1.03;0.93;;;;;;;;;;5033920;28;20416;-72
2023/11/09 13:26:54;;;;;;;1.77;0.70;;;;;;;;;;5033864;28;20880;-72
2023/11/09 13:29:22;;;;;;;0.80;0.80;;;;;;;;;;5033446;28;20900;-72
2023/11/09 13:31:52;;;;;;;1.60;1.20;;;;;;;;;;5033845;28;20523;-73
2023/11/09 13:34:23;;;;;;;1.10;1.00;;;;;;;;;;5033938;28;20409;-71
2023/11/09 13:36:57;;;;;;;1.40;0.97;;;;;;;;;;5033919;28;20409;-72
2023/11/09 13:42:20;;;;;;;1.97;0.90;;;;;;;;;;5034853;28;20476;-72
2023/11/09 13:44:48;;;;;;;1.17;1.00;;;;;;;;;;5053821;28;20400;-72
2023/11/09 13:47:14;;;;;;;1.13;1.00;;;;;;;;;;5050543;28;20401;-72
2023/11/09 13:49:40;;;;;;;4.33;1.20;;;;;;;;;;5033689;28;20449;-73
2023/11/09 13:52:14;;;;;;;1.30;1.20;;;;;;;;;;5033069;28;20487;-71
2023/11/09 13:57:19;;;;;;;1.13;1.10;;;;;;;;;;5033706;28;20548;-73
2023/11/09 13:59:53;;;;;;;0.93;0.83;;;;;;;;;;5033324;28;20436;-73
2023/11/09 14:02:20;;;;;;;2.13;1.00;;;;;;;;;;5033204;28;20440;-73
2023/11/09 14:04:51;;;;;;;3.50;1.13;;;;;;;;;;5032598;28;20901;-72
2023/11/09 14:07:18;;;;;;;4.43;1.40;;;;;;;;;;5033098;28;20496;-72
2023/11/09 14:09:46;;;;;;;2.97;1.50;;;;;;;;;;5038482;28;20419;-72
2023/11/09 14:12:36;;;;;;;7.20;1.40;;;;;;;;;;5052854;28;20516;-72
2023/11/09 14:14:58;;;;;;;1.63;1.40;;;;;;;;;;5052645;28;20424;-72
2023/11/09 14:17:33;;;;;;;2.37;1.27;;;;;;;;;;5045906;28;20783;-71
2023/11/09 14:19:59;;;;;;;4.83;1.60;;;;;;;;;;5033514;28;20424;-72
2023/11/09 14:22:27;;;;;;;2.60;1.20;;;;;;;;;;5032299;28;20429;-72
2023/11/09 14:24:55;;;;;;;1.87;1.00;;;;;;;;;;5032903;28;20819;-72
2023/11/09 14:27:28;;;;;;;2.83;1.60;;;;;;;;;;5032561;28;20416;-71
2023/11/09 14:29:57;;;;;;;3.90;1.43;;;;;;;;;;5032711;28;20405;-71
2023/11/09 14:32:26;;;;;;;1.00;0.90;;;;;;;;;;5032047;28;20449;-73
2023/11/09 14:34:53;;;;;;;1.10;1.00;;;;;;;;;;5031254;28;20409;-71
2023/11/09 14:37:20;;;;;;;2.33;1.00;;;;;;;;;;5035540;28;20417;-72
2023/11/09 14:42:31;;;;;;;2.50;1.60;;;;;;;;;;5020188;28;20480;-72
2023/11/09 14:44:57;;;;;;;1.60;1.27;;;;;;;;;;5027088;28;20413;-72
2023/11/09 14:47:25;;;;;;;1.40;1.20;;;;;;;;;;5026971;28;20414;-71
2023/11/09 14:49:52;;;;;;;4.73;1.60;;;;;;;;;;5025207;28;20421;-72
2023/11/09 14:52:40;;;;;;;2.07;1.50;;;;;;;;;;5017573;28;20511;-72
2023/11/09 14:55:07;;;;;;;4.97;1.57;;;;;;;;;;5021511;28;20491;-72
2023/11/09 14:57:32;;;;;;;1.47;1.03;;;;;;;;;;5022148;28;20417;-73
2023/11/09 14:59:58;;;;;;;1.43;1.20;;;;;;;;;;5022860;28;20777;-73
2023/11/09 15:02:24;;;;;;;3.50;1.67;;;;;;;;;;5022167;28;20603;-74
2023/11/09 15:04:53;;;;;;;3.20;1.20;;;;;;;;;;5022085;28;20414;-72
2023/11/09 15:07:20;;;;;;;13.33;2.13;;;;;;;;;;5020915;28;20427;-74
2023/11/09 15:09:51;;;;;;;2.10;1.40;;;;;;;;;;5025918;28;20509;-72
2023/11/09 15:12:20;;;;;;;1.87;1.50;;;;;;;;;;5030190;28;20437;-73
2023/11/09 15:14:48;;;;;;;1.17;1.07;;;;;;;;;;5023947;28;21032;-72
2023/11/09 15:17:14;;;;;;;2.20;0.93;;;;;;;;;;5011868;28;20418;-72
2023/11/09 15:19:40;;;;;;;1.23;0.80;;;;;;;;;;5010781;28;20414;-72
2023/11/09 15:22:16;;;;;;;1.20;1.13;;;;;;;;;;5012195;28;20473;-71
2023/11/09 15:24:45;;;;;;;1.90;1.37;;;;;;;;;;5012233;28;20449;-71
2023/11/09 15:27:14;;;;;;;2.10;1.23;;;;;;;;;;5012108;28;20518;-72
2023/11/09 15:29:41;;;;;;;5.43;2.37;;;;;;;;;;5012072;28;20408;-71
2023/11/09 15:32:10;;;;;;;5.30;2.80;;;;;;;;;;5011993;28;20462;-72
2023/11/09 15:34:38;;;;;;;2.83;1.30;;;;;;;;;;5013301;28;20894;-72
2023/11/09 15:37:04;;;;;;;1.33;1.23;;;;;;;;;;5013948;28;20448;-71
2023/11/09 15:39:31;;;;;;;1.30;1.20;;;;;;;;;;5015957;28;20425;-71
2023/11/09 15:41:57;;;;;;;1.80;1.50;;;;;;;;;;5017007;28;20467;-71
2023/11/09 15:44:22;;;;;;;2.30;1.50;;;;;;;;;;5017513;28;20409;-71
2023/11/09 15:46:50;;;;;;;2.67;1.80;;;;;;;;;;5016326;28;20410;-71
2023/11/09 15:49:18;;;;;;;2.90;1.77;;;;;;;;;;5015159;28;20417;-71
2023/11/09 15:51:46;;;;;;;2.70;1.63;;;;;;;;;;5012098;28;20426;-72
2023/11/09 15:54:12;;;;;;;1.23;1.20;;;;;;;;;;5011980;28;20493;-72
2023/11/09 15:56:39;;;;;;;2.40;1.80;;;;;;;;;;5012176;28;20406;-71
2023/11/09 15:59:05;;;;;;;2.70;1.83;;;;;;;;;;5012132;28;20406;-70
2023/11/09 16:01:31;;;;;;;2.67;1.23;;;;;;;;;;5012208;28;20465;-71
2023/11/09 16:03:57;;;;;;;3.80;1.57;;;;;;;;;;5011920;28;20902;-71
2023/11/09 16:06:23;;;;;;;2.83;1.63;;;;;;;;;;5012588;28;20412;-70
2023/11/09 16:08:49;;;;;;;2.00;0.90;;;;;;;;;;5012813;28;20403;-70
2023/11/09 16:11:20;;;;;;;1.13;1.10;;;;;;;;;;5011673;28;20960;-71
2023/11/09 16:13:46;;;;;;;1.33;1.23;;;;;;;;;;5011774;28;20417;-71
2023/11/09 16:16:13;;;;;;;3.13;1.10;;;;;;;;;;5011863;28;20418;-72
2023/11/09 16:18:39;;;;;;;2.67;1.23;;;;;;;;;;5011808;28;20492;-71
2023/11/09 16:21:07;;;;;;;3.50;1.87;;;;;;;;;;5011457;28;20524;-71
2023/11/09 16:23:36;;;;;;;1.97;1.50;;;;;;;;;;5011553;28;20437;-71
2023/11/09 16:26:03;;;;;;;2.90;1.70;;;;;;;;;;5021843;28;20777;-73
2023/11/09 16:28:33;;;;;;;2.00;1.40;;;;;;;;;;5034350;28;20409;-71
2023/11/09 16:31:02;;;;;;;1.83;1.60;;;;;;;;;;5035008;28;20934;-70
2023/11/09 16:33:28;;;;;;;1.80;1.47;;;;;;;;;;5035027;28;20821;-72
2023/11/09 16:35:55;;;;;;;4.17;2.07;;;;;;;;;;5035381;28;20516;-71
2023/11/09 16:38:21;;;;;;;3.83;2.97;;;;;;;;;;5035192;28;20782;-71
2023/11/09 16:40:48;;;;;;;4.90;2.73;;;;;;;;;;5035315;28;20555;-71
2023/11/09 16:43:14;;;;;;;4.33;2.37;;;;;;;;;;5035292;28;20405;-71
2023/11/09 16:45:40;;;;;;;5.90;2.60;;;;;;;;;;5035069;28;20463;-70
2023/11/09 16:48:06;;;;;;;8.10;3.27;;;;;;;;;;5035134;28;20406;-71
2023/11/09 16:50:32;;;;;;;7.70;3.57;;;;;;;;;;5033562;28;20444;-71
2023/11/09 16:52:58;;;;;;;5.50;2.93;;;;;;;;;;5034451;28;20428;-71
2023/11/09 16:55:24;;;;;;;3.00;1.93;;;;;;;;;;5034647;28;20763;-71
2023/11/09 16:57:51;;;;;;;3.87;2.07;;;;;;;;;;5034786;28;20830;-71
2023/11/09 17:00:18;;;;;;;3.40;1.80;;;;;;;;;;5033089;28;20827;-71
2023/11/09 17:02:47;;;;;;;3.87;2.03;;;;;;;;;;5034362;28;20409;-71
2023/11/09 17:05:14;;;;;;;3.77;2.40;;;;;;;;;;5034521;28;20405;-71
2023/11/09 17:07:40;;;;;;;5.40;2.80;;;;;;;;;;5033249;28;20421;-71
2023/11/09 17:10:08;;;;;;;4.90;2.27;;;;;;;;;;5034611;28;20916;-72
2023/11/09 17:12:34;;;;;;;2.53;1.90;;;;;;;;;;5034276;28;20437;-71
2023/11/09 17:15:02;;;;;;;4.17;2.73;;;;;;;;;;5034487;28;20765;-71
2023/11/09 17:17:28;;;;;;;7.50;3.77;;;;;;;;;;5034528;28;20469;-71
2023/11/09 17:19:55;;;;;;;8.33;4.23;;;;;;;;;;5033985;28;20405;-72
2023/11/09 17:22:24;;;;;;;13.77;5.60;;;;;;;;;;5033772;28;20429;-71
2023/11/09 17:24:50;;;;;;;11.37;5.87;;;;;;;;;;5033313;28;20768;-70
2023/11/09 17:27:16;;;;;;;16.70;6.87;;;;;;;;;;5032975;28;20413;-71
2023/11/09 17:29:42;;;;;;;16.03;6.57;;;;;;;;;;5034415;28;20405;-70
2023/11/09 17:32:08;;;;;;;7.10;3.40;;;;;;;;;;5033947;28;20491;-70
2023/11/09 17:34:34;;;;;;;7.37;3.90;;;;;;;;;;5034061;28;20781;-70
2023/11/09 17:37:00;;;;;;;6.57;3.47;;;;;;;;;;5033845;28;20417;-71
2023/11/09 17:39:26;;;;;;;10.00;4.60;;;;;;;;;;5033803;28;20425;-71
2023/11/09 17:41:53;;;;;;;9.73;4.20;;;;;;;;;;5033368;28;20469;-71
2023/11/09 17:44:19;;;;;;;7.73;4.10;;;;;;;;;;5032546;28;20421;-72
2023/11/09 17:46:46;;;;;;;7.90;3.97;;;;;;;;;;5033557;28;20405;-71
2023/11/09 17:49:12;;;;;;;6.30;3.63;;;;;;;;;;5032202;28;20924;-71
2023/11/09 17:51:41;;;;;;;7.30;3.33;;;;;;;;;;5033532;28;20452;-71
2023/11/09 17:54:07;;;;;;;10.80;4.57;;;;;;;;;;5033740;28;20456;-72
2023/11/09 17:56:33;;;;;;;8.10;4.60;;;;;;;;;;5033715;28;20474;-72
2023/11/09 17:58:59;;;;;;;7.23;4.23;;;;;;;;;;5033760;28;20416;-72
2023/11/09 18:01:29;;;;;;;3.20;2.50;;;;;;;;;;5033248;28;20491;-73
2023/11/09 18:03:55;;;;;;;2.70;2.10;;;;;;;;;;5031921;28;20749;-73
2023/11/09 18:06:29;;;;;;;10.57;2.53;;;;;;;;;;5032152;28;20486;-73
2023/11/09 18:08:55;;;;;;;3.37;2.00;;;;;;;;;;5033240;28;20455;-72
2023/11/09 18:11:25;;;;;;;1.87;1.30;;;;;;;;;;5033052;28;20433;-72
2023/11/09 18:13:51;;;;;;;1.70;1.23;;;;;;;;;;5033142;28;20421;-72
2023/11/09 18:16:18;;;;;;;5.60;2.83;;;;;;;;;;5033285;28;20494;-72
2023/11/09 18:18:44;;;;;;;7.43;3.27;;;;;;;;;;5032978;28;20424;-72
2023/11/09 18:21:10;;;;;;;11.67;4.70;;;;;;;;;;5032684;28;20465;-72
2023/11/09 18:23:36;;;;;;;9.57;3.83;;;;;;;;;;5033089;28;20401;-71
2023/11/09 18:26:02;;;;;;;6.53;3.30;;;;;;;;;;5033382;28;20928;-72
2023/11/09 18:28:28;;;;;;;9.43;4.20;;;;;;;;;;5033495;28;20416;-72
2023/11/09 18:30:55;;;;;;;3.73;2.83;;;;;;;;;;5032826;28;20528;-72
2023/11/09 18:33:21;;;;;;;5.80;4.10;;;;;;;;;;5032836;28;20896;-72
2023/11/09 18:35:47;;;;;;;2.73;2.03;;;;;;;;;;5033118;28;20405;-72
2023/11/09 18:38:13;;;;;;;3.87;2.20;;;;;;;;;;5033114;28;20437;-73
2023/11/09 18:40:39;;;;;;;6.00;3.27;;;;;;;;;;5032656;28;20535;-73
2023/11/09 18:43:06;;;;;;;3.93;1.83;;;;;;;;;;5032588;28;20815;-72
2023/11/09 18:45:32;;;;;;;7.93;2.37;;;;;;;;;;5032530;28;20440;-71
2023/11/09 18:47:58;;;;;;;2.80;1.63;;;;;;;;;;5032704;28;20436;-72
2023/11/09 18:50:24;;;;;;;2.77;1.70;;;;;;;;;;5032067;28;20417;-71
2023/11/09 18:52:50;;;;;;;2.60;1.63;;;;;;;;;;5032540;28;20417;-71
2023/11/09 18:55:16;;;;;;;6.20;2.40;;;;;;;;;;5032596;28;20447;-72
2023/11/09 18:57:43;;;;;;;2.40;1.60;;;;;;;;;;5032551;28;20927;-72
2023/11/09 19:00:12;;;;;;;1.70;1.60;;;;;;;;;;5032284;28;20797;-72
2023/11/09 19:02:38;;;;;;;5.63;2.07;;;;;;;;;;5032478;28;20436;-72
2023/11/09 19:05:05;;;;;;;4.87;2.47;;;;;;;;;;5032364;28;20405;-72
2023/11/09 19:07:32;;;;;;;4.20;1.57;;;;;;;;;;5032928;28;20415;-72
2023/11/09 19:09:58;;;;;;;2.40;1.47;;;;;;;;;;5031226;28;20920;-71
2023/11/09 19:12:27;;;;;;;5.50;1.90;;;;;;;;;;5032472;28;20425;-71
2023/11/09 19:14:55;;;;;;;3.07;2.03;;;;;;;;;;5032763;28;20416;-72
2023/11/09 19:17:21;;;;;;;2.30;1.87;;;;;;;;;;5033058;28;20529;-71
2023/11/09 19:19:47;;;;;;;2.30;1.53;;;;;;;;;;5032238;28;20496;-72
2023/11/09 19:22:13;;;;;;;3.17;2.10;;;;;;;;;;5032094;28;20473;-73
2023/11/09 19:24:39;;;;;;;4.23;2.47;;;;;;;;;;5032170;28;20405;-72
2023/11/09 19:27:05;;;;;;;6.50;2.87;;;;;;;;;;5032318;28;20416;-72
2023/11/09 19:29:33;;;;;;;4.63;2.47;;;;;;;;;;5032118;28;20974;-72
2023/11/09 19:31:59;;;;;;;5.40;1.97;;;;;;;;;;5031876;28;20492;-73
2023/11/09 19:34:25;;;;;;;14.07;2.20;;;;;;;;;;5032257;28;20937;-73
2023/11/09 19:36:51;;;;;;;6.17;2.17;;;;;;;;;;5032107;28;20467;-72
2023/11/09 19:39:17;;;;;;;3.30;2.33;;;;;;;;;;5031960;28;20908;-72
2023/11/09 19:41:43;;;;;;;4.27;2.13;;;;;;;;;;5031820;28;20468;-72
2023/11/09 19:44:09;;;;;;;3.73;2.30;;;;;;;;;;5030588;28;20424;-73
2023/11/09 19:46:36;;;;;;;3.47;2.10;;;;;;;;;;5030830;28;20421;-73
2023/11/09 19:49:03;;;;;;;2.17;2.00;;;;;;;;;;5032062;28;20440;-73
2023/11/09 19:51:30;;;;;;;2.50;2.03;;;;;;;;;;5030694;28;20968;-73
2023/11/09 19:53:58;;;;;;;5.13;2.17;;;;;;;;;;5031899;28;20458;-73
2023/11/09 19:56:24;;;;;;;8.53;3.50;;;;;;;;;;5032087;28;20413;-73
2023/11/09 19:58:50;;;;;;;9.10;3.07;;;;;;;;;;5032119;28;20417;-72
2023/11/09 20:01:17;;;;;;;6.07;2.47;;;;;;;;;;5031715;28;20472;-72
2023/11/09 20:03:43;;;;;;;4.20;2.37;;;;;;;;;;5035303;28;20405;-72
2023/11/09 20:06:10;;;;;;;2.30;1.80;;;;;;;;;;5036020;28;20405;-72
2023/11/09 20:08:36;;;;;;;2.30;1.80;;;;;;;;;;5036207;28;20409;-72
2023/11/09 20:11:04;;;;;;;3.13;1.90;;;;;;;;;;5036453;28;20429;-73
2023/11/09 20:13:30;;;;;;;2.50;2.20;;;;;;;;;;5035778;28;20789;-73
2023/11/09 20:15:56;;;;;;;4.20;2.00;;;;;;;;;;5035899;28;20410;-72
2023/11/09 20:18:22;;;;;;;2.70;1.97;;;;;;;;;;5036120;28;20432;-73
2023/11/09 20:20:48;;;;;;;6.60;2.13;;;;;;;;;;5035810;28;20964;-73
2023/11/09 20:23:14;;;;;;;1.77;1.43;;;;;;;;;;5035653;28;20413;-72
2023/11/09 20:25:43;;;;;;;3.83;1.77;;;;;;;;;;5035542;28;20409;-71
2023/11/09 20:28:10;;;;;;;3.87;2.00;;;;;;;;;;5036077;28;20417;-72
2023/11/09 20:30:36;;;;;;;2.80;1.70;;;;;;;;;;5036247;28;20448;-71
2023/11/09 20:33:03;;;;;;;3.43;1.97;;;;;;;;;;5043708;28;20423;-72
2023/11/09 20:35:29;;;;;;;2.33;1.73;;;;;;;;;;5039579;28;20905;-71
2023/11/09 20:37:55;;;;;;;4.57;2.60;;;;;;;;;;5040455;28;20420;-71
2023/11/09 20:40:21;;;;;;;1.90;1.80;;;;;;;;;;5037040;28;20472;-72
2023/11/09 20:42:47;;;;;;;3.90;1.67;;;;;;;;;;5039012;28;20401;-72
2023/11/09 20:45:14;;;;;;;1.43;1.40;;;;;;;;;;5038253;28;20444;-72
2023/11/09 20:47:40;;;;;;;1.77;1.70;;;;;;;;;;5035939;28;20773;-72
2023/11/09 20:50:12;;;;;;;2.07;1.70;;;;;;;;;;5035355;28;20416;-71
2023/11/09 20:52:38;;;;;;;1.50;1.40;;;;;;;;;;5034886;28;20413;-72
2023/11/09 20:55:07;;;;;;;2.70;1.93;;;;;;;;;;5035202;28;20417;-73